createdAt,value
2023-05-02T00:00:45.696Z,44.46
2023-05-02T00:04:13.122Z,44.60
2023-05-02T00:07:43.531Z,44.55
2023-05-02T00:11:12.801Z,44.78
2023-05-02T00:14:40.362Z,44.86
2023-05-02T00:18:07.853Z,44.86
2023-05-02T00:21:37.326Z,45.01
2023-05-02T00:25:04.610Z,45.06
2023-05-02T00:28:32.333Z,45.20
2023-05-02T00:31:59.978Z,45.20
2023-05-02T00:35:28.138Z,45.26
2023-05-02T00:38:55.228Z,45.25
2023-05-02T00:42:22.842Z,45.29
2023-05-02T00:45:50.501Z,45.38
2023-05-02T00:49:18.036Z,45.58
2023-05-02T00:52:46.771Z,45.45
2023-05-02T00:56:14.028Z,45.58
2023-05-02T00:59:41.755Z,45.57
2023-05-02T01:03:27.285Z,45.62
2023-05-02T01:07:18.724Z,45.76
2023-05-02T01:10:57.644Z,45.77
2023-05-02T01:14:31.153Z,45.85
2023-05-02T01:18:00.672Z,45.94
2023-05-02T01:21:28.246Z,45.99
2023-05-02T01:25:06.312Z,45.96
2023-05-02T01:28:43.921Z,46.18
2023-05-02T01:32:12.410Z,46.14
2023-05-02T01:35:40.482Z,46.18
2023-05-02T01:39:09.978Z,46.33
2023-05-02T01:42:38.419Z,46.61
2023-05-02T01:46:08.880Z,46.57
2023-05-02T01:49:40.322Z,46.72
2023-05-02T01:53:14.054Z,46.76
2023-05-02T01:56:45.794Z,46.80
2023-05-02T02:00:18.970Z,46.90
2023-05-02T02:03:48.650Z,46.92
2023-05-02T02:07:16.761Z,46.98
2023-05-02T02:10:51.960Z,46.94
2023-05-02T02:14:22.993Z,46.99
2023-05-02T02:17:56.916Z,46.97
2023-05-02T02:21:30.600Z,46.93
2023-05-02T02:24:59.009Z,47.11
2023-05-02T02:28:27.215Z,47.27
2023-05-02T02:32:00.029Z,47.36
2023-05-02T02:35:33.464Z,47.48
2023-05-02T02:39:14.176Z,47.50
2023-05-02T02:42:53.766Z,47.54
2023-05-02T02:46:32.030Z,47.55
2023-05-02T02:50:13.147Z,47.81
2023-05-02T02:53:54.036Z,47.80
2023-05-02T02:57:30.100Z,47.98
2023-05-02T03:00:58.753Z,48.10
2023-05-02T03:04:30.361Z,48.15
2023-05-02T03:08:00.601Z,48.29
2023-05-02T03:11:29.527Z,48.20
2023-05-02T03:15:16.198Z,48.37
2023-05-02T03:18:45.001Z,48.49
2023-05-02T03:22:12.847Z,48.59
2023-05-02T03:25:39.772Z,48.59
2023-05-02T03:29:09.486Z,48.65
2023-05-02T03:32:37.887Z,48.82
2023-05-02T03:36:06.317Z,48.98
2023-05-02T03:39:33.679Z,48.85
2023-05-02T03:43:01.555Z,48.96
2023-05-02T03:46:29.546Z,49.03
2023-05-02T03:49:57.747Z,49.10
2023-05-02T03:53:25.482Z,49.13
2023-05-02T03:56:54.785Z,49.24
2023-05-02T04:00:26.248Z,49.25
2023-05-02T04:03:56.874Z,49.38
2023-05-02T04:07:26.291Z,49.39
2023-05-02T04:10:58.452Z,49.42
2023-05-02T04:14:25.211Z,49.52
2023-05-02T04:17:54.321Z,49.64
2023-05-02T04:21:21.526Z,49.73
2023-05-02T04:24:48.501Z,49.76
2023-05-02T04:28:16.775Z,49.86
2023-05-02T04:31:44.541Z,50.02
2023-05-02T04:35:13.193Z,50.15
2023-05-02T04:38:40.131Z,50.13
2023-05-02T04:42:07.495Z,50.26
2023-05-02T04:45:39.983Z,50.28
2023-05-02T04:49:12.419Z,50.29
2023-05-02T04:52:39.587Z,50.44
2023-05-02T04:56:07.060Z,50.57
2023-05-02T04:59:36.790Z,50.51
2023-05-02T05:03:04.148Z,50.70
2023-05-02T05:06:39.495Z,50.93
2023-05-02T05:10:11.496Z,51.24
2023-05-02T05:13:43.527Z,51.45
2023-05-02T05:17:12.136Z,51.40
2023-05-02T05:20:39.149Z,51.68
2023-05-02T05:24:06.859Z,51.66
2023-05-02T05:27:35.150Z,51.81
2023-05-02T05:31:08.702Z,51.84
2023-05-02T05:34:36.610Z,51.77
2023-05-02T05:38:03.838Z,51.93
2023-05-02T05:41:33.679Z,51.89
2023-05-02T05:45:04.370Z,51.97
2023-05-02T05:48:32.826Z,52.16
2023-05-02T05:52:00.311Z,52.08
2023-05-02T05:55:28.877Z,52.19
2023-05-02T05:58:56.559Z,51.96
2023-05-02T06:02:23.454Z,52.13
2023-05-02T06:05:51.452Z,52.14
2023-05-02T06:09:18.170Z,51.93
2023-05-02T06:12:46.646Z,52.33
2023-05-02T06:16:15.113Z,52.09
2023-05-02T06:19:42.844Z,52.02
2023-05-02T06:23:09.923Z,52.16
2023-05-02T06:26:36.934Z,52.25
2023-05-02T06:30:04.150Z,52.05
2023-05-02T06:33:31.450Z,52.10
2023-05-02T06:36:59.166Z,52.25
2023-05-02T06:40:25.908Z,52.12
2023-05-02T06:43:52.891Z,52.20
2023-05-02T06:47:19.830Z,52.48
2023-05-02T06:50:47.401Z,52.39
2023-05-02T06:54:16.069Z,52.43
2023-05-02T06:57:44.316Z,52.58
2023-05-02T07:01:13.137Z,53.07
2023-05-02T07:04:40.241Z,52.95
2023-05-02T07:08:08.239Z,53.40
2023-05-02T07:11:35.041Z,53.79
2023-05-02T07:15:02.037Z,53.89
2023-05-02T07:18:29.479Z,54.20
2023-05-02T07:21:56.288Z,54.49
2023-05-02T07:25:23.984Z,54.55
2023-05-02T07:28:51.655Z,54.49
2023-05-02T07:32:19.171Z,54.46
2023-05-02T07:35:46.166Z,54.69
2023-05-02T07:39:14.155Z,54.52
2023-05-02T07:42:42.366Z,54.41
2023-05-02T07:46:10.134Z,54.28
2023-05-02T07:49:37.144Z,54.25
2023-05-02T07:53:04.213Z,54.34
2023-05-02T07:56:31.678Z,54.08
2023-05-02T07:59:58.587Z,53.82
2023-05-02T08:03:31.685Z,53.99
2023-05-02T08:06:58.870Z,53.99
2023-05-02T08:10:26.292Z,53.85
2023-05-02T08:13:54.327Z,53.50
2023-05-02T08:17:22.066Z,53.27
2023-05-02T08:20:51.071Z,53.32
2023-05-02T08:24:17.954Z,53.16
2023-05-02T08:27:46.578Z,52.90
2023-05-02T08:31:13.342Z,52.81
2023-05-02T08:34:40.893Z,52.83
2023-05-02T08:38:07.818Z,52.42
2023-05-02T08:41:34.838Z,52.06
2023-05-02T08:45:02.844Z,51.67
2023-05-02T08:48:32.539Z,51.49
2023-05-02T08:52:00.457Z,51.31
2023-05-02T08:55:28.706Z,51.37
2023-05-02T08:58:55.800Z,51.03
2023-05-02T09:02:32.065Z,50.47
2023-05-02T09:06:11.183Z,50.29
2023-05-02T09:09:39.091Z,50.09
2023-05-02T09:13:32.032Z,49.78
2023-05-02T09:17:03.834Z,49.64
2023-05-02T09:20:44.238Z,49.48
2023-05-02T09:24:22.073Z,49.11
2023-05-02T09:27:59.349Z,48.86
2023-05-02T09:31:54.070Z,48.52
2023-05-02T09:35:24.008Z,47.95
2023-05-02T09:38:51.875Z,47.66
2023-05-02T09:42:37.143Z,47.51
2023-05-02T09:46:06.188Z,47.71
2023-05-02T09:49:47.303Z,47.64
2023-05-02T09:53:13.974Z,47.18
2023-05-02T09:56:57.741Z,46.72
2023-05-02T10:00:26.948Z,46.68
2023-05-02T10:03:56.240Z,46.13
2023-05-02T10:07:24.239Z,45.64
2023-05-02T10:10:54.485Z,45.40
2023-05-02T10:14:23.862Z,45.19
2023-05-02T10:17:53.600Z,45.16
2023-05-02T10:21:27.795Z,44.91
2023-05-02T10:24:56.443Z,44.37
2023-05-02T10:28:24.032Z,44.18
2023-05-02T10:31:53.101Z,43.89
2023-05-02T10:35:21.243Z,43.88
2023-05-02T10:38:52.716Z,43.79
2023-05-02T10:42:22.562Z,43.45
2023-05-02T10:45:50.198Z,43.17
2023-05-02T10:49:18.196Z,42.87
2023-05-02T10:52:45.151Z,42.88
2023-05-02T10:56:22.619Z,42.58
2023-05-02T10:59:52.135Z,42.62
2023-05-02T11:03:59.997Z,42.64
2023-05-02T11:07:27.427Z,42.53
2023-05-02T11:10:55.263Z,42.37
2023-05-02T11:14:54.362Z,42.33
2023-05-02T11:18:21.124Z,42.12
2023-05-02T11:21:48.115Z,42.05
2023-05-02T11:25:32.837Z,42.23
2023-05-02T11:28:59.448Z,42.09
2023-05-02T11:32:27.818Z,41.75
2023-05-02T11:35:57.106Z,41.69
2023-05-02T11:39:24.442Z,41.56
2023-05-02T11:42:51.370Z,41.45
2023-05-02T11:46:20.574Z,41.36
2023-05-02T11:49:47.496Z,41.47
2023-05-02T11:53:18.859Z,41.23
2023-05-02T11:56:45.538Z,41.09
2023-05-02T12:00:13.982Z,40.86
2023-05-02T12:03:40.963Z,40.78
2023-05-02T12:07:10.212Z,40.85
2023-05-02T12:10:42.269Z,40.80
2023-05-02T12:14:09.580Z,40.73
2023-05-02T12:17:39.283Z,40.76
2023-05-02T12:21:07.886Z,40.67
2023-05-02T12:24:38.781Z,40.71
2023-05-02T12:28:05.946Z,40.78
2023-05-02T12:31:32.903Z,41.14
2023-05-02T12:35:00.514Z,41.42
2023-05-02T12:38:27.462Z,41.45
2023-05-02T12:41:54.227Z,41.45
2023-05-02T12:45:23.953Z,41.69
2023-05-02T12:49:05.761Z,41.70
2023-05-02T12:52:49.118Z,41.95
2023-05-02T12:56:15.716Z,41.92
2023-05-02T12:59:42.739Z,41.87
2023-05-02T13:03:10.226Z,41.87
2023-05-02T13:06:38.767Z,41.97
2023-05-02T13:10:09.486Z,42.01
2023-05-02T13:13:36.597Z,42.24
2023-05-02T13:17:05.123Z,42.26
2023-05-02T13:20:32.857Z,42.52
2023-05-02T13:24:01.804Z,42.70
2023-05-02T13:27:32.370Z,42.87
2023-05-02T13:30:59.634Z,43.04
2023-05-02T13:34:27.228Z,43.12
2023-05-02T13:37:54.248Z,43.20
2023-05-02T13:41:21.922Z,43.34
2023-05-02T13:44:49.180Z,43.45
2023-05-02T13:48:16.536Z,43.76
2023-05-02T13:51:44.268Z,43.79
2023-05-02T13:55:12.903Z,43.85
2023-05-02T13:58:42.364Z,43.68
2023-05-02T14:02:11.191Z,43.91
2023-05-02T14:05:41.246Z,43.89
2023-05-02T14:09:09.224Z,43.84
2023-05-02T14:12:39.651Z,43.87
2023-05-02T14:16:09.005Z,43.90
2023-05-02T14:19:36.064Z,43.89
2023-05-02T14:23:05.208Z,43.98
2023-05-02T14:26:33.097Z,44.09
2023-05-02T14:30:00.928Z,44.03
2023-05-02T14:33:28.751Z,44.11
2023-05-02T14:36:56.438Z,44.22
2023-05-02T14:40:24.230Z,44.29
2023-05-02T14:43:53.117Z,44.40
2023-05-02T14:47:20.457Z,44.47
2023-05-02T14:50:47.811Z,44.53
2023-05-02T14:54:16.000Z,44.54
2023-05-02T14:57:43.112Z,44.73
2023-05-02T15:01:16.546Z,44.87
2023-05-02T15:04:41.748Z,45.05
2023-05-02T15:08:09.468Z,44.97
2023-05-02T15:11:36.493Z,45.20
2023-05-02T15:15:03.621Z,45.11
2023-05-02T15:18:30.933Z,45.10
2023-05-02T15:21:58.681Z,45.36
2023-05-02T15:25:25.284Z,45.51
2023-05-02T15:28:55.192Z,45.38
2023-05-02T15:32:22.445Z,45.35
2023-05-02T15:35:59.913Z,45.48
2023-05-02T15:39:28.236Z,45.50
2023-05-02T15:42:55.355Z,45.59
2023-05-02T15:46:22.634Z,45.55
2023-05-02T15:49:51.985Z,45.63
2023-05-02T15:53:20.063Z,45.76
2023-05-02T15:56:47.518Z,45.69
2023-05-02T16:00:18.549Z,45.74
2023-05-02T16:03:46.303Z,45.78
2023-05-02T16:07:14.402Z,45.90
2023-05-02T16:10:43.635Z,46.03
2023-05-02T16:14:10.636Z,45.97
2023-05-02T16:17:37.259Z,46.10
2023-05-02T16:21:05.957Z,46.20
2023-05-02T16:24:32.462Z,46.03
2023-05-02T16:28:00.328Z,46.10
2023-05-02T16:31:27.734Z,46.13
2023-05-02T16:34:54.747Z,46.17
2023-05-02T16:38:21.449Z,46.22
2023-05-02T16:41:49.672Z,46.17
2023-05-02T16:45:16.386Z,46.29
2023-05-02T16:48:44.094Z,46.31
2023-05-02T16:52:10.842Z,46.29
2023-05-02T16:55:37.861Z,46.28
2023-05-02T16:59:04.594Z,46.28
2023-05-02T17:02:31.210Z,46.23
2023-05-02T17:06:02.219Z,46.29
2023-05-02T17:09:29.804Z,46.47
2023-05-02T17:13:01.224Z,46.48
2023-05-02T17:16:28.594Z,46.46
2023-05-02T17:19:56.271Z,46.57
2023-05-02T17:23:29.851Z,46.56
2023-05-02T17:26:57.116Z,46.67
2023-05-02T17:30:29.573Z,46.76
2023-05-02T17:33:56.393Z,46.72
2023-05-02T17:37:23.115Z,46.64
2023-05-02T17:40:50.691Z,46.43
2023-05-02T17:44:17.813Z,46.53
2023-05-02T17:47:48.956Z,46.42
2023-05-02T17:51:16.436Z,46.33
2023-05-02T17:54:43.901Z,46.51
2023-05-02T17:58:13.529Z,46.53
2023-05-02T18:01:40.754Z,46.57
2023-05-02T18:05:09.986Z,46.46
2023-05-02T18:08:37.858Z,46.60
2023-05-02T18:12:07.255Z,46.58
2023-05-02T18:15:34.213Z,46.63
2023-05-02T18:19:01.341Z,46.95
2023-05-02T18:22:34.286Z,46.83
2023-05-02T18:26:04.289Z,46.84
2023-05-02T18:29:34.643Z,46.87
2023-05-02T18:33:01.938Z,46.99
2023-05-02T18:36:31.838Z,47.12
2023-05-02T18:40:03.359Z,47.09
2023-05-02T18:43:30.994Z,47.19
2023-05-02T18:47:01.970Z,47.17
2023-05-02T18:50:33.910Z,47.13
2023-05-02T18:54:03.074Z,47.11
2023-05-02T18:57:30.546Z,46.94
2023-05-02T19:00:57.510Z,47.01
2023-05-02T19:04:24.734Z,47.17
2023-05-02T19:07:51.312Z,47.33
2023-05-02T19:11:19.823Z,47.27
2023-05-02T19:14:50.567Z,47.31
2023-05-02T19:18:17.936Z,47.46
2023-05-02T19:21:48.329Z,47.39
2023-05-02T19:25:16.005Z,47.32
2023-05-02T19:28:43.592Z,47.63
2023-05-02T19:32:11.036Z,47.61
2023-05-02T19:35:38.987Z,47.64
2023-05-02T19:39:06.228Z,47.67
2023-05-02T19:42:33.942Z,47.61
2023-05-02T19:46:04.559Z,47.87
2023-05-02T19:49:31.438Z,48.00
2023-05-02T19:52:59.111Z,48.14
2023-05-02T19:56:30.061Z,48.27
2023-05-02T19:59:56.972Z,48.27
2023-05-02T20:03:25.561Z,48.24
2023-05-02T20:06:56.475Z,48.31
2023-05-02T20:10:25.788Z,48.37
2023-05-02T20:13:58.611Z,48.39
2023-05-02T20:17:29.909Z,48.39
2023-05-02T20:20:56.857Z,48.51
2023-05-02T20:24:23.884Z,48.52
2023-05-02T20:27:53.188Z,48.55
2023-05-02T20:31:20.181Z,48.54
2023-05-02T20:34:47.879Z,48.60
2023-05-02T20:38:17.979Z,48.47
2023-05-02T20:41:45.688Z,48.62
2023-05-02T20:45:15.157Z,48.63
2023-05-02T20:48:45.141Z,48.66
2023-05-02T20:52:14.282Z,48.71
2023-05-02T20:55:40.566Z,48.67
2023-05-02T20:59:07.803Z,48.62
2023-05-02T21:02:36.882Z,48.74
2023-05-02T21:06:07.406Z,48.65
2023-05-02T21:09:34.852Z,48.76
2023-05-02T21:13:01.690Z,48.54
2023-05-02T21:16:32.642Z,48.43
2023-05-02T21:19:59.318Z,48.48
2023-05-02T21:23:27.049Z,48.45
2023-05-02T21:26:53.781Z,48.50
2023-05-02T21:30:21.198Z,48.52
2023-05-02T21:33:48.461Z,48.46
2023-05-02T21:37:17.010Z,48.47
2023-05-02T21:40:44.329Z,48.52
2023-05-02T21:44:14.564Z,48.51
2023-05-02T21:47:41.727Z,48.63
2023-05-02T21:51:14.203Z,48.53
2023-05-02T21:54:47.224Z,48.59
2023-05-02T21:58:14.509Z,48.68
2023-05-02T22:01:41.373Z,48.54
2023-05-02T22:05:09.067Z,48.62
2023-05-02T22:08:36.685Z,48.79
2023-05-02T22:12:06.601Z,48.74
2023-05-02T22:15:37.898Z,48.72
2023-05-02T22:19:04.949Z,48.78
2023-05-02T22:22:31.908Z,48.78
2023-05-02T22:26:00.029Z,48.76
2023-05-02T22:29:27.354Z,48.59
2023-05-02T22:32:56.260Z,48.66
2023-05-02T22:36:23.530Z,48.70
2023-05-02T22:39:53.971Z,48.77
2023-05-02T22:43:22.724Z,48.87
2023-05-02T22:46:50.104Z,48.96
2023-05-02T22:50:18.216Z,49.19
2023-05-02T22:53:46.300Z,48.94
2023-05-02T22:57:14.857Z,48.89
2023-05-02T23:00:43.552Z,49.07
2023-05-02T23:04:12.177Z,48.94
2023-05-02T23:07:39.473Z,49.12
2023-05-02T23:11:07.433Z,49.16
2023-05-02T23:14:34.494Z,49.25
2023-05-02T23:18:02.444Z,49.25
2023-05-02T23:21:30.761Z,49.19
2023-05-02T23:24:58.003Z,48.99
2023-05-02T23:28:25.394Z,49.40
2023-05-02T23:31:55.094Z,49.33
2023-05-02T23:35:23.126Z,49.24
2023-05-02T23:38:51.974Z,49.53
2023-05-02T23:42:19.271Z,49.73
2023-05-02T23:45:49.259Z,49.51
2023-05-02T23:49:18.958Z,49.72
2023-05-02T23:52:49.140Z,49.90
2023-05-02T23:56:17.217Z,49.95
2023-05-02T23:59:44.181Z,49.91
